Time;durP1;ratioP1;P1;durP2;ratioP2;P2;SDS_P1;SDS_P2;PMS_P1;PMS_P2;Temp;Humidity;BMP_temperature;BMP_pressure;BME280_temperature;BME280_humidity;BME280_pressure;Samples;Min_cycle;Max_cycle;Signal;HPM_P1;HPM_P2
2024/01/27 00:01:42;;;;;;;11.52;5.65;;;;;;;7.84;100.00;100651.44;5034032;28;20045;-43
2024/01/27 00:04:16;;;;;;;8.77;5.03;;;;;;;7.73;100.00;100659.00;5033996;28;20423;-43
2024/01/27 00:06:44;;;;;;;11.25;4.90;;;;;;;7.67;100.00;100649.47;5034109;28;20041;-43
2024/01/27 00:09:15;;;;;;;9.00;4.68;;;;;;;7.71;100.00;100658.16;5033719;28;20513;-45
2024/01/27 00:11:44;;;;;;;9.88;4.72;;;;;;;7.70;100.00;100680.34;5033754;28;20045;-43
2024/01/27 00:14:13;;;;;;;7.85;4.15;;;;;;;7.66;100.00;100681.41;5033669;28;20398;-45
2024/01/27 00:16:41;;;;;;;8.05;4.35;;;;;;;7.67;100.00;100697.25;5033636;28;20053;-42
2024/01/27 00:19:10;;;;;;;7.93;3.97;;;;;;;7.73;100.00;100706.78;5033504;28;20045;-44
2024/01/27 00:21:41;;;;;;;7.22;3.97;;;;;;;7.69;100.00;100694.53;5033868;28;20050;-42
2024/01/27 00:24:09;;;;;;;8.52;3.70;;;;;;;7.64;100.00;100705.38;5033910;28;20045;-42
2024/01/27 00:26:38;;;;;;;7.47;4.00;;;;;;;7.67;100.00;100717.66;5033619;28;20386;-43
2024/01/27 00:29:07;;;;;;;7.47;3.83;;;;;;;7.68;100.00;100714.94;5033509;28;20045;-44
2024/01/27 00:31:38;;;;;;;8.18;3.90;;;;;;;7.67;100.00;100728.28;5033567;28;20111;-47
2024/01/27 00:34:07;;;;;;;7.50;3.63;;;;;;;7.70;100.00;100744.06;5033402;28;20042;-42
2024/01/27 00:36:36;;;;;;;6.65;3.10;;;;;;;7.71;100.00;100722.75;5033390;28;20049;-47
2024/01/27 00:39:06;;;;;;;7.05;3.40;;;;;;;7.68;100.00;100733.50;5033508;28;20053;-45
2024/01/27 00:41:34;;;;;;;7.60;3.15;;;;;;;7.64;100.00;100716.00;5033547;28;20120;-43
2024/01/27 00:44:02;;;;;;;7.82;3.00;;;;;;;7.54;100.00;100711.97;5032875;28;20141;-43
2024/01/27 00:46:33;;;;;;;7.80;2.75;;;;;;;7.52;100.00;100695.22;5033462;28;20049;-43
2024/01/27 00:49:02;;;;;;;6.10;2.67;;;;;;;7.50;100.00;100704.19;5032935;28;20449;-44
2024/01/27 00:51:32;;;;;;;6.65;2.70;;;;;;;7.47;100.00;100699.88;5033173;28;20053;-43
2024/01/27 00:54:03;;;;;;;5.18;2.17;;;;;;;7.49;100.00;100707.78;5033135;28;20448;-44
2024/01/27 00:56:33;;;;;;;7.07;2.25;;;;;;;7.45;100.00;100723.81;5032972;28;20050;-43
2024/01/27 00:59:01;;;;;;;5.07;2.20;;;;;;;7.44;100.00;100710.63;5032622;28;20136;-44
2024/01/27 01:01:30;;;;;;;5.53;1.90;;;;;;;7.40;100.00;100703.69;5033130;28;20462;-45
2024/01/27 01:03:58;;;;;;;5.20;1.73;;;;;;;7.33;100.00;100699.53;5033152;28;20052;-44
2024/01/27 01:06:26;;;;;;;4.47;1.85;;;;;;;7.30;100.00;100747.44;5033118;28;20052;-43
2024/01/27 01:08:55;;;;;;;5.82;2.13;;;;;;;7.33;100.00;100724.28;5032705;28;20486;-42
2024/01/27 01:11:24;;;;;;;7.45;1.60;;;;;;;7.35;100.00;100733.06;5032733;28;20208;-44
2024/01/27 01:13:53;;;;;;;3.70;1.55;;;;;;;7.30;100.00;100756.25;5032814;28;20049;-44
2024/01/27 01:16:22;;;;;;;2.55;1.67;;;;;;;7.31;100.00;100754.47;5032936;28;20054;-43
2024/01/27 01:18:50;;;;;;;4.88;1.90;;;;;;;7.34;100.00;100747.28;5032598;28;20403;-42
2024/01/27 01:21:19;;;;;;;4.55;1.90;;;;;;;7.33;100.00;100753.47;5032597;28;20072;-43
2024/01/27 01:23:47;;;;;;;3.85;1.80;;;;;;;7.24;100.00;100756.53;5032510;28;20083;-43
2024/01/27 01:26:16;;;;;;;4.43;1.88;;;;;;;7.24;100.00;100755.63;5032944;28;20081;-41
2024/01/27 01:28:44;;;;;;;3.90;2.00;;;;;;;7.13;100.00;100750.72;5032700;28;20145;-46
2024/01/27 01:31:14;;;;;;;4.55;1.80;;;;;;;7.16;100.00;100729.41;5032353;28;20041;-43
2024/01/27 01:33:43;;;;;;;3.60;1.75;;;;;;;7.12;100.00;100702.13;5032427;28;20121;-43
2024/01/27 01:36:12;;;;;;;3.90;1.83;;;;;;;7.04;100.00;100736.03;5032086;28;20137;-43
2024/01/27 01:38:40;;;;;;;4.40;1.88;;;;;;;7.16;100.00;100732.06;5032198;28;20080;-43
2024/01/27 01:41:09;;;;;;;4.30;1.58;;;;;;;7.17;100.00;100736.44;5032324;28;20057;-44
2024/01/27 01:43:37;;;;;;;5.25;1.70;;;;;;;7.11;100.00;100742.84;5031984;28;20057;-43
2024/01/27 01:46:06;;;;;;;2.95;1.55;;;;;;;7.11;100.00;100739.31;5031919;28;20052;-44
2024/01/27 01:48:36;;;;;;;5.13;1.73;;;;;;;7.04;100.00;100748.41;5031572;28;20049;-44
2024/01/27 01:51:05;;;;;;;3.28;1.50;;;;;;;7.04;100.00;100737.81;5031872;28;20406;-46
2024/01/27 01:53:33;;;;;;;4.65;1.75;;;;;;;6.97;100.00;100725.72;5031924;28;20120;-42
2024/01/27 01:56:03;;;;;;;5.13;1.60;;;;;;;6.95;100.00;100740.81;5031969;28;20046;-43
2024/01/27 01:58:34;;;;;;;4.63;1.55;;;;;;;7.03;100.00;100754.66;5031690;28;20056;-43
2024/01/27 02:01:02;;;;;;;4.80;1.67;;;;;;;6.98;100.00;100743.38;5031742;28;20050;-43
2024/01/27 02:03:31;;;;;;;4.15;1.50;;;;;;;6.97;100.00;100760.22;5031393;28;20056;-43
2024/01/27 02:06:01;;;;;;;2.60;1.30;;;;;;;6.94;100.00;100755.84;5031828;28;20049;-44
2024/01/27 02:08:31;;;;;;;5.35;1.20;;;;;;;6.87;100.00;100763.19;5031598;28;20049;-44
2024/01/27 02:11:02;;;;;;;2.55;1.25;;;;;;;6.89;100.00;100748.09;5031550;28;20149;-45
2024/01/27 02:13:31;;;;;;;3.58;1.65;;;;;;;6.89;100.00;100745.44;5032252;28;20128;-43
2024/01/27 02:15:59;;;;;;;3.10;1.38;;;;;;;6.98;100.00;100736.28;5032092;28;20061;-44
2024/01/27 02:18:28;;;;;;;5.93;1.48;;;;;;;6.87;100.00;100744.63;5032143;28;20041;-44
2024/01/27 02:20:56;;;;;;;3.88;1.45;;;;;;;6.87;100.00;100751.72;5031539;28;20054;-43
2024/01/27 02:23:26;;;;;;;3.55;1.30;;;;;;;6.80;100.00;100748.44;5031410;28;20064;-43
2024/01/27 02:25:56;;;;;;;6.43;1.30;;;;;;;6.81;100.00;100758.09;5032299;28;20061;-44
2024/01/27 02:28:25;;;;;;;4.15;1.27;;;;;;;6.78;100.00;100771.50;5031564;28;20120;-43
2024/01/27 02:30:56;;;;;;;4.43;1.40;;;;;;;6.78;100.00;100773.28;5031345;28;20142;-43
2024/01/27 02:33:24;;;;;;;2.72;1.20;;;;;;;6.70;100.00;100781.50;5031336;28;20049;-44
2024/01/27 02:35:53;;;;;;;2.90;1.25;;;;;;;6.76;100.00;100781.28;5031217;28;20145;-44
2024/01/27 02:38:21;;;;;;;2.47;1.23;;;;;;;6.66;100.00;100782.53;5031027;28;20080;-45
2024/01/27 02:40:49;;;;;;;2.78;1.20;;;;;;;6.57;100.00;100809.38;5031034;28;20055;-44
2024/01/27 02:43:19;;;;;;;4.05;1.20;;;;;;;6.64;100.00;100826.78;5030632;28;20208;-43
2024/01/27 02:45:48;;;;;;;3.28;1.05;;;;;;;6.60;100.00;100849.88;5031194;28;20053;-48
2024/01/27 02:48:16;;;;;;;3.65;1.30;;;;;;;6.67;100.00;100839.06;5030988;28;20458;-44
2024/01/27 02:50:45;;;;;;;3.40;0.98;;;;;;;6.65;100.00;100873.56;5031056;28;20088;-44
2024/01/27 02:53:13;;;;;;;3.90;1.20;;;;;;;6.66;100.00;100864.72;5031192;28;20085;-42
2024/01/27 02:55:41;;;;;;;3.15;1.20;;;;;;;6.65;100.00;100878.88;5030634;28;20099;-44
2024/01/27 02:58:09;;;;;;;3.42;1.02;;;;;;;6.65;100.00;100896.56;5030895;28;20107;-44
2024/01/27 03:00:39;;;;;;;2.22;1.08;;;;;;;6.74;100.00;100886.50;5030605;28;20060;-44
2024/01/27 03:03:08;;;;;;;2.92;1.30;;;;;;;6.62;100.00;100894.03;5030840;28;20041;-43
2024/01/27 03:05:36;;;;;;;3.08;1.10;;;;;;;6.64;100.00;100908.09;5030516;28;20060;-44
2024/01/27 03:08:05;;;;;;;3.45;1.00;;;;;;;6.55;100.00;100894.22;5030654;28;20052;-43
2024/01/27 03:10:34;;;;;;;3.67;0.95;;;;;;;6.52;100.00;100912.03;5030395;28;20050;-44
2024/01/27 03:13:02;;;;;;;0.93;0.68;;;;;;;6.56;100.00;100913.63;5030648;28;20136;-44
2024/01/27 03:15:31;;;;;;;2.67;0.88;;;;;;;6.46;100.00;100912.22;5030731;28;20049;-43
2024/01/27 03:18:02;;;;;;;2.13;0.80;;;;;;;6.46;100.00;100914.84;5030560;28;20459;-43
2024/01/27 03:20:31;;;;;;;3.35;0.88;;;;;;;6.46;100.00;100914.84;5030598;28;20402;-44
2024/01/27 03:22:59;;;;;;;1.67;0.95;;;;;;;6.47;100.00;100932.53;5032852;28;20120;-44
2024/01/27 03:25:28;;;;;;;4.50;1.45;;;;;;;6.51;100.00;100939.44;5034701;28;20368;-43
2024/01/27 03:27:56;;;;;;;3.75;1.80;;;;;;;6.48;100.00;100955.44;5034604;28;20045;-44
2024/01/27 03:30:25;;;;;;;2.00;1.13;;;;;;;6.51;100.00;100960.66;5034402;28;20053;-44
2024/01/27 03:32:53;;;;;;;2.95;1.30;;;;;;;6.54;100.00;100965.84;5034413;28;20537;-44
2024/01/27 03:35:23;;;;;;;2.15;0.80;;;;;;;6.59;100.00;100974.53;5034246;28;20049;-46
2024/01/27 03:37:52;;;;;;;2.08;1.08;;;;;;;6.56;100.00;100979.91;5034326;28;20061;-44
2024/01/27 03:40:20;;;;;;;3.97;1.27;;;;;;;6.58;100.00;100980.75;5034292;28;20406;-44
2024/01/27 03:42:48;;;;;;;2.92;1.00;;;;;;;6.57;100.00;100992.28;5034205;28;20147;-43
2024/01/27 03:45:17;;;;;;;1.83;0.80;;;;;;;6.47;100.00;101012.91;5032990;28;20077;-43
2024/01/27 03:47:45;;;;;;;0.90;0.80;;;;;;;6.51;100.00;100989.81;5034028;28;20482;-42
2024/01/27 03:50:18;;;;;;;1.75;0.95;;;;;;;6.55;100.00;100980.81;5034106;28;20136;-43
2024/01/27 03:52:47;;;;;;;1.70;1.00;;;;;;;6.49;100.00;100984.56;5034431;28;20087;-44
2024/01/27 03:55:15;;;;;;;2.80;1.00;;;;;;;6.40;100.00;101016.63;5033970;28;20092;-44
2024/01/27 03:57:44;;;;;;;5.15;1.15;;;;;;;6.30;100.00;101010.75;5034385;28;20140;-44
2024/01/27 04:00:13;;;;;;;2.22;1.00;;;;;;;6.19;100.00;101006.69;5033893;28;20423;-43
2024/01/27 04:02:42;;;;;;;3.85;1.48;;;;;;;6.19;100.00;101018.16;5033958;28;20041;-45
2024/01/27 04:05:10;;;;;;;1.92;1.23;;;;;;;6.15;100.00;101035.03;5034867;28;20133;-44
2024/01/27 04:07:38;;;;;;;3.97;1.55;;;;;;;6.08;100.00;101036.16;5037580;28;20087;-44
2024/01/27 04:10:08;;;;;;;5.38;1.90;;;;;;;6.02;100.00;101036.34;5033632;28;20049;-42
2024/01/27 04:12:37;;;;;;;4.53;1.60;;;;;;;5.92;100.00;101041.03;5033769;28;20052;-44
2024/01/27 04:15:07;;;;;;;2.25;1.42;;;;;;;5.95;100.00;101040.91;5033732;28;20045;-44
2024/01/27 04:17:35;;;;;;;4.63;1.60;;;;;;;5.94;100.00;101038.31;5033772;28;20099;-43
2024/01/27 04:20:04;;;;;;;5.50;1.70;;;;;;;5.99;100.00;101058.47;5033648;28;20125;-43
2024/01/27 04:22:33;;;;;;;3.80;1.63;;;;;;;5.93;100.00;101068.38;5033620;28;20053;-43
2024/01/27 04:25:01;;;;;;;2.05;1.10;;;;;;;6.01;100.00;101072.53;5033318;28;20136;-42
2024/01/27 04:27:31;;;;;;;4.05;1.40;;;;;;;6.08;100.00;101072.34;5033271;28;20081;-43
2024/01/27 04:30:00;;;;;;;1.73;1.10;;;;;;;6.02;100.00;101084.00;5033194;28;20045;-45
2024/01/27 04:32:28;;;;;;;2.38;1.00;;;;;;;6.01;100.00;101087.56;5033383;28;20052;-43
2024/01/27 04:34:57;;;;;;;2.70;1.27;;;;;;;5.96;100.00;101074.44;5032034;28;20049;-54
2024/01/27 04:37:25;;;;;;;2.50;1.17;;;;;;;5.93;100.00;101102.78;5033486;28;20045;-45
2024/01/27 04:39:54;;;;;;;2.60;1.30;;;;;;;5.94;100.00;101089.50;5033123;28;20494;-44
2024/01/27 04:42:22;;;;;;;2.88;0.90;;;;;;;5.96;100.00;101113.28;5031800;28;20049;-45
2024/01/27 04:44:52;;;;;;;2.63;1.10;;;;;;;5.97;100.00;101117.66;5033877;28;20592;-44
2024/01/27 04:47:20;;;;;;;2.58;1.30;;;;;;;5.91;100.00;101117.84;5034278;28;20218;-44
2024/01/27 04:49:48;;;;;;;3.35;1.10;;;;;;;5.91;100.00;101125.81;5033770;28;20415;-49
2024/01/27 04:52:17;;;;;;;3.42;1.15;;;;;;;5.93;100.00;101123.97;5033570;28;20069;-44
2024/01/27 04:54:46;;;;;;;4.07;1.05;;;;;;;5.95;100.00;101130.09;5032790;28;20135;-45
2024/01/27 04:57:14;;;;;;;2.60;1.25;;;;;;;5.85;100.00;101144.47;5032815;28;20049;-43
2024/01/27 04:59:43;;;;;;;3.47;1.40;;;;;;;5.74;100.00;101132.38;5032832;28;20046;-43
2024/01/27 05:02:13;;;;;;;3.20;1.20;;;;;;;5.66;100.00;101134.34;5032763;28;20146;-43
2024/01/27 05:04:41;;;;;;;3.25;1.10;;;;;;;5.74;100.00;101132.38;5032520;28;20033;-43
2024/01/27 05:07:09;;;;;;;1.17;1.00;;;;;;;5.77;100.00;101141.13;5032412;28;20065;-43
2024/01/27 05:09:38;;;;;;;1.90;1.20;;;;;;;5.66;100.00;101152.88;5032194;28;20059;-43
2024/01/27 05:12:06;;;;;;;5.65;1.40;;;;;;;5.65;100.00;101148.50;5032464;28;20068;-44
2024/01/27 05:14:34;;;;;;;2.92;1.30;;;;;;;5.65;100.00;101151.13;5032363;28;20164;-44
2024/01/27 05:17:03;;;;;;;4.57;1.77;;;;;;;5.66;100.00;101155.53;5032526;28;20045;-43
2024/01/27 05:19:32;;;;;;;2.40;1.13;;;;;;;5.54;100.00;101161.13;5032938;28;20046;-43
2024/01/27 05:22:01;;;;;;;5.03;1.67;;;;;;;5.60;100.00;101155.69;5032259;28;20046;-43
2024/01/27 05:24:32;;;;;;;3.30;1.17;;;;;;;5.67;100.00;101173.13;5032466;28;20547;-45
2024/01/27 05:27:01;;;;;;;3.50;1.40;;;;;;;5.58;100.00;101172.50;5032599;28;20329;-46
2024/01/27 05:29:29;;;;;;;3.88;1.30;;;;;;;5.68;100.00;101177.53;5032639;28;20041;-43
2024/01/27 05:31:57;;;;;;;3.35;1.17;;;;;;;5.59;100.00;101180.41;5032296;28;20413;-44
2024/01/27 05:34:25;;;;;;;3.08;1.00;;;;;;;5.49;100.00;101178.88;5032274;28;20521;-44
2024/01/27 05:36:55;;;;;;;5.10;1.20;;;;;;;5.62;100.00;101185.63;5032843;28;20046;-44
2024/01/27 05:39:24;;;;;;;4.13;1.40;;;;;;;5.57;100.00;101195.44;5033281;28;20077;-43
2024/01/27 05:41:52;;;;;;;4.93;1.70;;;;;;;5.67;100.00;101218.13;5033087;28;20372;-44
2024/01/27 05:44:20;;;;;;;4.10;1.73;;;;;;;5.51;100.00;101195.63;5032536;28;20049;-42
2024/01/27 05:46:48;;;;;;;4.00;1.63;;;;;;;5.53;100.00;101203.53;5031647;28;20124;-47
2024/01/27 05:49:16;;;;;;;6.30;1.77;;;;;;;5.61;100.00;101188.34;5031897;28;20046;-43
2024/01/27 05:51:45;;;;;;;5.03;1.30;;;;;;;5.75;100.00;101197.66;5031998;28;20058;-43
2024/01/27 05:54:16;;;;;;;8.35;2.25;;;;;;;5.68;100.00;101211.94;5031966;28;20081;-44
2024/01/27 05:56:45;;;;;;;3.13;1.45;;;;;;;5.60;100.00;101198.03;5031730;28;20065;-44
2024/01/27 05:59:13;;;;;;;5.55;1.63;;;;;;;5.60;100.00;101213.94;5031625;28;20041;-44
2024/01/27 06:01:44;;;;;;;3.30;1.40;;;;;;;5.52;100.00;101207.94;5031577;28;20124;-42
2024/01/27 06:04:13;;;;;;;5.88;1.58;;;;;;;5.60;100.00;101223.66;5030365;28;20041;-42
2024/01/27 06:06:41;;;;;;;2.92;1.25;;;;;;;5.60;100.00;101224.50;5031897;28;20127;-41
2024/01/27 06:09:10;;;;;;;5.63;1.77;;;;;;;5.50;100.00;101207.13;5031484;28;20479;-47
2024/01/27 06:11:42;;;;;;;5.57;1.80;;;;;;;5.57;100.00;101219.28;5031383;28;20080;-42
2024/01/27 06:14:10;;;;;;;7.68;1.45;;;;;;;5.59;100.00;101243.06;5031426;28;20492;-43
2024/01/27 06:16:38;;;;;;;4.78;1.50;;;;;;;5.58;100.00;101231.59;5031494;28;20042;-43
2024/01/27 06:19:07;;;;;;;5.95;1.60;;;;;;;5.59;100.00;101232.47;5031585;28;20045;-51
2024/01/27 06:21:35;;;;;;;6.53;1.33;;;;;;;5.53;100.00;101244.09;5031446;28;20136;-43
2024/01/27 06:24:07;;;;;;;6.55;1.70;;;;;;;5.57;100.00;101237.81;5031458;28;20123;-42
2024/01/27 06:26:35;;;;;;;4.65;1.45;;;;;;;5.55;100.00;101242.28;5031273;28;20053;-45
2024/01/27 06:29:05;;;;;;;4.70;1.45;;;;;;;5.56;100.00;101238.72;5031336;28;20049;-43
2024/01/27 06:31:34;;;;;;;5.13;1.30;;;;;;;5.52;100.00;101237.06;5031236;28;20045;-45
2024/01/27 06:34:03;;;;;;;4.63;1.40;;;;;;;5.57;100.00;101236.94;5030962;28;20380;-43
2024/01/27 06:36:32;;;;;;;7.65;1.63;;;;;;;5.59;100.00;101224.53;5030976;28;20045;-43
2024/01/27 06:39:00;;;;;;;7.32;1.50;;;;;;;5.62;100.00;101248.28;5030978;28;20084;-43
2024/01/27 06:41:29;;;;;;;4.03;1.40;;;;;;;5.53;100.00;101244.09;5030765;28;20042;-42
2024/01/27 06:43:57;;;;;;;3.78;1.10;;;;;;;5.59;100.00;101249.22;5030523;28;20053;-43
2024/01/27 06:46:27;;;;;;;6.75;1.45;;;;;;;5.66;100.00;101247.31;5030975;28;20045;-41
2024/01/27 06:48:55;;;;;;;6.78;1.40;;;;;;;5.67;100.00;101252.56;5031158;28;20041;-43
2024/01/27 06:51:23;;;;;;;7.75;1.85;;;;;;;5.72;100.00;101253.31;5030512;28;20053;-42
2024/01/27 06:53:52;;;;;;;4.07;1.58;;;;;;;5.82;100.00;101276.94;5030804;28;20049;-42
2024/01/27 06:56:21;;;;;;;5.65;1.35;;;;;;;5.84;100.00;101280.41;5012331;28;20045;-44
2024/01/27 06:58:49;;;;;;;4.70;1.40;;;;;;;5.78;100.00;101291.13;5030871;28;20100;-42
2024/01/27 07:01:17;;;;;;;6.22;1.48;;;;;;;5.82;100.00;101283.09;5030808;28;20052;-43
2024/01/27 07:03:47;;;;;;;7.47;1.60;;;;;;;5.90;100.00;101290.84;5030828;28;20068;-43
2024/01/27 07:06:15;;;;;;;6.32;1.80;;;;;;;5.85;100.00;101296.25;5030828;28;20045;-43
2024/01/27 07:08:44;;;;;;;3.45;1.20;;;;;;;5.94;100.00;101301.34;5030516;28;20046;-43
2024/01/27 07:11:13;;;;;;;4.72;1.45;;;;;;;5.89;100.00;101299.72;5030750;28;20042;-44
2024/01/27 07:13:42;;;;;;;4.10;1.30;;;;;;;5.99;100.00;101296.84;5030872;28;20084;-44
2024/01/27 07:16:10;;;;;;;4.85;1.40;;;;;;;5.99;100.00;101285.38;5030828;28;20045;-44
2024/01/27 07:18:38;;;;;;;5.15;1.40;;;;;;;6.00;100.00;101289.75;5030647;28;20095;-43
2024/01/27 07:21:08;;;;;;;3.28;1.20;;;;;;;6.03;100.00;101292.31;5031416;28;20045;-43
2024/01/27 07:23:37;;;;;;;3.80;1.17;;;;;;;6.09;100.00;101278.94;5031624;28;20056;-44
2024/01/27 07:26:05;;;;;;;9.23;1.83;;;;;;;6.05;100.00;101303.75;5033600;28;20497;-45
2024/01/27 07:28:34;;;;;;;5.47;1.33;;;;;;;6.05;100.00;101284.34;5031149;28;20052;-44
2024/01/27 07:31:02;;;;;;;3.42;1.33;;;;;;;6.06;100.00;101286.94;5032846;28;20406;-44
2024/01/27 07:33:31;;;;;;;6.65;1.38;;;;;;;6.14;100.00;101294.69;5032332;28;20060;-42
2024/01/27 07:36:02;;;;;;;9.13;1.80;;;;;;;6.16;100.00;101296.38;5032740;28;20813;-44
2024/01/27 07:38:32;;;;;;;5.88;1.75;;;;;;;6.20;100.00;101273.34;5033893;28;20088;-42
2024/01/27 07:41:01;;;;;;;4.90;1.35;;;;;;;6.26;100.00;101276.69;5032284;28;20053;-44
2024/01/27 07:43:29;;;;;;;4.03;1.33;;;;;;;6.28;100.00;101282.84;5030970;28;20053;-44
2024/01/27 07:46:01;;;;;;;7.25;1.45;;;;;;;6.35;100.00;101306.53;5030617;28;20084;-44
2024/01/27 07:48:29;;;;;;;7.20;1.58;;;;;;;6.43;100.00;101280.69;5030485;28;20046;-43
2024/01/27 07:50:57;;;;;;;3.85;1.35;;;;;;;6.45;100.00;101300.94;5030474;28;20049;-44
2024/01/27 07:53:26;;;;;;;7.18;1.75;;;;;;;6.42;100.00;101294.84;5013038;28;20046;-43
2024/01/27 07:55:56;;;;;;;6.85;1.70;;;;;;;6.47;100.00;101290.31;5030551;28;20053;-43
2024/01/27 07:58:24;;;;;;;5.15;1.38;;;;;;;6.49;100.00;101284.06;5030486;28;20055;-43
2024/01/27 08:00:53;;;;;;;4.18;1.30;;;;;;;6.54;100.00;101295.38;5030610;28;20048;-44
2024/01/27 08:03:21;;;;;;;5.90;1.27;;;;;;;6.63;100.00;101288.97;5030931;28;20054;-46
2024/01/27 08:05:50;;;;;;;3.90;1.10;;;;;;;6.76;100.00;101297.47;5030587;28;20053;-44
2024/01/27 08:08:18;;;;;;;5.47;1.45;;;;;;;6.63;100.00;101302.22;5031375;28;21193;-44
2024/01/27 08:10:47;;;;;;;4.25;1.25;;;;;;;6.62;100.00;101307.56;5034023;28;20077;-43
2024/01/27 08:13:16;;;;;;;3.50;1.45;;;;;;;6.73;100.00;101301.06;5014145;28;20050;-44
2024/01/27 08:15:45;;;;;;;5.22;1.73;;;;;;;6.58;100.00;101312.97;5014370;28;20042;-43
2024/01/27 08:18:13;;;;;;;5.07;1.65;;;;;;;6.60;100.00;101310.28;5014199;28;20141;-44
2024/01/27 08:20:41;;;;;;;5.43;1.38;;;;;;;6.67;100.00;101317.16;5014079;28;20046;-44
2024/01/27 08:23:10;;;;;;;4.70;0.93;;;;;;;6.54;100.00;101315.72;5014225;28;20065;-42
2024/01/27 08:25:39;;;;;;;5.63;1.38;;;;;;;6.42;100.00;101334.59;5014213;28;20050;-46
2024/01/27 08:28:09;;;;;;;5.10;1.40;;;;;;;6.53;100.00;101329.91;5013691;28;20057;-44
2024/01/27 08:30:39;;;;;;;5.63;1.30;;;;;;;6.61;100.00;101343.81;5013922;28;20466;-44
2024/01/27 08:33:07;;;;;;;5.65;1.35;;;;;;;6.58;100.00;101331.53;5013915;28;20056;-44
2024/01/27 08:35:35;;;;;;;3.83;1.30;;;;;;;6.47;100.00;101338.03;5013934;28;20050;-43
2024/01/27 08:38:05;;;;;;;4.47;1.38;;;;;;;6.41;100.00;101343.47;5013923;28;20046;-44
2024/01/27 08:40:34;;;;;;;4.75;1.20;;;;;;;6.40;100.00;101344.38;5013766;28;20052;-43
2024/01/27 08:43:02;;;;;;;2.90;1.10;;;;;;;6.29;100.00;101334.94;5013508;28;20567;-44
2024/01/27 08:45:30;;;;;;;6.90;1.35;;;;;;;6.28;100.00;101361.47;5013892;28;20050;-45
2024/01/27 08:48:00;;;;;;;3.10;1.30;;;;;;;6.26;100.00;101340.28;5013594;28;20128;-42
2024/01/27 08:50:29;;;;;;;5.20;1.38;;;;;;;6.41;100.00;101359.38;5013724;28;20050;-45
2024/01/27 08:52:57;;;;;;;6.45;1.63;;;;;;;6.42;100.00;101345.22;5013610;28;20123;-44
2024/01/27 08:55:25;;;;;;;4.30;1.27;;;;;;;6.57;100.00;101345.69;5013486;28;20046;-44
2024/01/27 08:57:53;;;;;;;5.03;1.48;;;;;;;6.70;100.00;101354.19;5013667;28;20042;-46
2024/01/27 09:00:21;;;;;;;4.68;1.20;;;;;;;6.72;100.00;101352.34;5013682;28;20100;-45
2024/01/27 09:02:50;;;;;;;5.45;1.58;;;;;;;6.72;100.00;101355.00;5013636;28;20050;-44
2024/01/27 09:05:20;;;;;;;5.47;1.48;;;;;;;6.77;100.00;101339.84;5013190;28;20466;-42
2024/01/27 09:07:48;;;;;;;4.32;1.60;;;;;;;6.71;100.00;101341.78;5013110;28;20120;-47
2024/01/27 09:10:16;;;;;;;2.80;1.00;;;;;;;6.68;100.00;101371.06;5013140;28;20637;-43
2024/01/27 09:12:45;;;;;;;4.50;1.20;;;;;;;6.67;100.00;101335.72;5012919;28;20096;-43
2024/01/27 09:15:13;;;;;;;5.53;1.88;;;;;;;6.68;100.00;101348.06;5013186;28;20045;-44
2024/01/27 09:17:42;;;;;;;4.00;1.52;;;;;;;6.84;100.00;101351.16;5012672;28;20518;-48
2024/01/27 09:20:12;;;;;;;2.97;1.20;;;;;;;6.84;100.00;101349.34;5012069;28;20411;-43
2024/01/27 09:22:42;;;;;;;4.70;1.33;;;;;;;7.01;100.00;101363.94;5012965;28;20068;-46
2024/01/27 09:25:10;;;;;;;2.97;1.35;;;;;;;6.72;100.00;101357.66;5012928;28;20538;-45
2024/01/27 09:27:39;;;;;;;4.35;1.10;;;;;;;6.96;100.00;101348.19;5016629;28;20042;-44
2024/01/27 09:30:08;;;;;;;5.25;1.25;;;;;;;6.85;100.00;101367.03;5016490;28;20046;-45
2024/01/27 09:32:37;;;;;;;5.72;1.65;;;;;;;6.86;100.00;101375.88;5012565;28;20057;-41
2024/01/27 09:35:06;;;;;;;2.45;1.10;;;;;;;6.75;100.00;101389.38;5012412;28;20042;-44
2024/01/27 09:37:34;;;;;;;4.88;1.35;;;;;;;6.98;100.00;101374.66;5012878;28;20065;-44
2024/01/27 09:40:04;;;;;;;3.97;1.45;;;;;;;6.93;100.00;101366.81;5012539;28;20064;-45
2024/01/27 09:42:34;;;;;;;4.63;1.45;;;;;;;6.75;100.00;101378.78;4995153;28;20100;-49
2024/01/27 09:45:03;;;;;;;4.68;1.40;;;;;;;6.92;100.00;101380.13;5012479;28;20046;-45
2024/01/27 09:47:31;;;;;;;3.13;1.17;;;;;;;6.89;100.00;101404.94;5024993;28;20083;-44
2024/01/27 09:50:00;;;;;;;5.15;1.40;;;;;;;6.97;100.00;101407.41;5035539;28;20049;-43
2024/01/27 09:52:29;;;;;;;2.83;1.13;;;;;;;6.86;100.00;101387.34;5052227;28;20055;-45
2024/01/27 09:54:57;;;;;;;4.03;1.50;;;;;;;7.02;100.00;101400.19;5052253;28;20449;-44
2024/01/27 09:57:28;;;;;;;3.28;1.38;;;;;;;7.04;100.00;101412.47;5052274;28;20044;-44
2024/01/27 09:59:58;;;;;;;4.30;1.40;;;;;;;7.03;100.00;101412.53;5052584;28;20130;-44
2024/01/27 10:02:27;;;;;;;4.05;1.50;;;;;;;6.92;100.00;101396.03;5052035;28;20470;-43
2024/01/27 10:04:59;;;;;;;5.75;1.25;;;;;;;7.02;100.00;101406.34;5052123;28;20045;-45
2024/01/27 10:07:28;;;;;;;4.90;1.13;;;;;;;7.25;100.00;101415.47;5051663;28;20048;-45
2024/01/27 10:09:57;;;;;;;5.05;1.30;;;;;;;7.23;100.00;101390.75;5052152;28;20052;-46
2024/01/27 10:12:29;;;;;;;6.55;1.50;;;;;;;7.30;100.00;101377.25;5051533;28;20098;-44
2024/01/27 10:14:57;;;;;;;7.20;1.60;;;;;;;7.21;100.00;101392.56;5051701;28;20136;-44
2024/01/27 10:17:34;;;;;;;3.03;1.48;;;;;;;7.14;100.00;101375.94;5033188;28;20053;-43
2024/01/27 10:20:04;;;;;;;5.47;1.45;;;;;;;7.45;100.00;101371.53;5031591;28;20041;-43
2024/01/27 10:22:38;;;;;;;4.32;1.52;;;;;;;7.36;100.00;101355.00;5031610;28;20083;-45
2024/01/27 10:25:08;;;;;;;4.35;1.23;;;;;;;7.31;100.00;101354.25;5031242;28;20176;-45
2024/01/27 10:27:39;;;;;;;5.00;1.50;;;;;;;7.31;100.00;101351.59;5031524;28;20050;-44
2024/01/27 10:30:16;;;;;;;3.90;1.27;;;;;;;7.34;100.00;101363.00;5031368;28;20049;-44
2024/01/27 10:32:45;;;;;;;5.20;1.40;;;;;;;7.43;100.00;101368.06;5031499;28;20128;-44
2024/01/27 10:35:13;;;;;;;5.60;1.50;;;;;;;7.31;100.00;101372.81;5031373;28;20136;-44
2024/01/27 10:37:41;;;;;;;6.28;1.40;;;;;;;7.51;100.00;101367.78;5031217;28;20057;-44
2024/01/27 10:40:12;;;;;;;6.20;1.48;;;;;;;7.37;100.00;101362.91;5031572;28;20132;-43
2024/01/27 10:42:43;;;;;;;5.80;1.70;;;;;;;7.28;100.00;101379.09;5031840;28;20045;-43
2024/01/27 10:45:13;;;;;;;4.15;1.40;;;;;;;7.00;100.00;101364.88;5031848;28;20045;-44
2024/01/27 10:47:46;;;;;;;5.13;1.20;;;;;;;6.92;100.00;101382.78;5031878;28;20469;-44
2024/01/27 10:50:14;;;;;;;4.05;1.25;;;;;;;7.11;100.00;101374.25;5031667;28;20049;-43
2024/01/27 10:52:45;;;;;;;7.50;1.55;;;;;;;7.34;100.00;101372.75;5031407;28;20045;-44
2024/01/27 10:55:15;;;;;;;3.72;1.55;;;;;;;7.60;100.00;101364.88;5031034;28;20088;-42
2024/01/27 10:57:47;;;;;;;4.97;1.33;;;;;;;7.70;100.00;101378.72;5031277;28;20140;-45
2024/01/27 11:00:16;;;;;;;5.90;1.70;;;;;;;7.70;100.00;101363.66;5031133;28;20052;-43
2024/01/27 11:02:46;;;;;;;4.60;1.73;;;;;;;7.70;100.00;101361.00;5030872;28;20049;-44
2024/01/27 11:05:16;;;;;;;4.00;1.10;;;;;;;7.95;100.00;101373.56;5030648;28;20123;-44
2024/01/27 11:07:44;;;;;;;4.95;1.40;;;;;;;7.85;100.00;101374.75;5030959;28;20049;-44
2024/01/27 11:10:13;;;;;;;4.80;1.55;;;;;;;7.80;100.00;101364.25;5030700;28;20041;-46
2024/01/27 11:12:41;;;;;;;6.05;1.65;;;;;;;7.66;100.00;101361.16;5030630;28;20368;-43
2024/01/27 11:15:11;;;;;;;6.95;1.58;;;;;;;7.58;100.00;101384.44;5030836;28;20053;-44
2024/01/27 11:17:40;;;;;;;7.60;1.52;;;;;;;7.57;99.69;101369.41;5030947;28;20123;-43
2024/01/27 11:20:11;;;;;;;5.78;1.67;;;;;;;7.88;95.51;101390.59;5030847;28;20438;-42
2024/01/27 11:22:42;;;;;;;6.63;1.60;;;;;;;7.78;95.73;101368.75;5030965;28;20514;-48
2024/01/27 11:25:16;;;;;;;7.78;1.63;;;;;;;7.89;92.79;101377.25;5030933;28;20502;-45
2024/01/27 11:27:46;;;;;;;3.55;1.08;;;;;;;7.62;90.88;101356.84;5030565;28;20374;-46
2024/01/27 11:30:33;;;;;;;5.70;1.75;;;;;;;7.64;91.66;101384.25;5030687;28;20133;-43
2024/01/27 11:33:03;;;;;;;7.75;1.55;;;;;;;7.81;91.56;101376.63;5030084;28;20045;-44